createdAt,value
2023-02-01T00:00:57.997Z,9.27
2023-02-01T00:03:27.326Z,9.50
2023-02-01T00:05:59.149Z,9.30
2023-02-01T00:08:27.406Z,9.43
2023-02-01T00:11:02.410Z,10.57
2023-02-01T00:13:31.687Z,9.77
2023-02-01T00:16:05.804Z,10.00
2023-02-01T00:18:33.975Z,10.07
2023-02-01T00:21:02.356Z,9.30
2023-02-01T00:23:30.539Z,9.97
2023-02-01T00:26:03.878Z,9.77
2023-02-01T00:28:31.964Z,10.33
2023-02-01T00:31:00.418Z,8.77
2023-02-01T00:33:29.084Z,10.10
2023-02-01T00:35:59.420Z,9.83
2023-02-01T00:38:27.487Z,8.83
2023-02-01T00:40:55.836Z,8.57
2023-02-01T00:43:25.275Z,7.50
2023-02-01T00:45:53.299Z,8.83
2023-02-01T00:48:21.602Z,7.20
2023-02-01T00:50:49.698Z,7.70
2023-02-01T00:53:18.638Z,6.43
2023-02-01T00:55:47.663Z,6.03
2023-02-01T00:58:16.330Z,5.30
2023-02-01T01:00:45.909Z,5.50
2023-02-01T01:03:19.552Z,5.33
2023-02-01T01:05:47.824Z,5.00
2023-02-01T01:08:16.616Z,5.23
2023-02-01T01:10:45.505Z,5.30
2023-02-01T01:13:13.599Z,5.17
2023-02-01T01:15:42.069Z,4.73
2023-02-01T01:18:11.616Z,4.60
2023-02-01T01:20:41.913Z,4.67
2023-02-01T01:23:10.597Z,4.60
2023-02-01T01:25:40.086Z,4.83
2023-02-01T01:28:08.963Z,5.03
2023-02-01T01:30:37.177Z,3.93
2023-02-01T01:33:05.419Z,4.50
2023-02-01T01:35:35.406Z,4.60
2023-02-01T01:38:03.739Z,4.80
2023-02-01T01:40:32.498Z,4.67
2023-02-01T01:43:00.691Z,5.17
2023-02-01T01:45:31.116Z,4.53
2023-02-01T01:48:01.064Z,4.97
2023-02-01T01:50:34.879Z,4.50
2023-02-01T01:53:08.211Z,4.27
2023-02-01T01:55:40.281Z,4.70
2023-02-01T01:58:10.918Z,4.20
2023-02-01T02:00:39.372Z,4.03
2023-02-01T02:03:11.220Z,5.30
2023-02-01T02:05:40.953Z,4.90
2023-02-01T02:08:10.136Z,4.67
2023-02-01T02:10:56.639Z,5.23
2023-02-01T02:13:25.209Z,4.70
2023-02-01T02:16:03.358Z,4.80
2023-02-01T02:18:36.066Z,5.33
2023-02-01T02:21:19.636Z,5.30
2023-02-01T02:24:07.453Z,4.83
2023-02-01T02:26:58.137Z,5.60
2023-02-01T02:30:06.670Z,5.40
2023-02-01T02:32:54.114Z,5.63
2023-02-01T02:35:29.657Z,4.93
2023-02-01T02:38:04.322Z,5.17
2023-02-01T02:40:36.072Z,5.70
2023-02-01T02:43:31.677Z,5.07
2023-02-01T02:46:29.752Z,5.90
2023-02-01T02:49:03.397Z,5.67
2023-02-01T02:51:53.887Z,4.87
2023-02-01T02:54:41.837Z,5.73
2023-02-01T02:57:30.139Z,6.27
2023-02-01T03:00:18.101Z,5.53
2023-02-01T03:03:04.533Z,5.37
2023-02-01T03:05:35.345Z,5.27
2023-02-01T03:08:13.437Z,5.67
2023-02-01T03:10:48.416Z,5.73
2023-02-01T03:13:19.571Z,5.53
2023-02-01T03:15:53.833Z,5.50
2023-02-01T03:18:28.925Z,6.00
2023-02-01T03:20:59.155Z,5.47
2023-02-01T03:23:34.860Z,5.47
2023-02-01T03:26:05.225Z,5.40
2023-02-01T03:28:35.398Z,6.03
2023-02-01T03:31:04.464Z,5.03
2023-02-01T03:33:34.649Z,4.50
2023-02-01T03:36:17.916Z,5.33
2023-02-01T03:38:53.049Z,4.97
2023-02-01T03:41:29.441Z,4.70
2023-02-01T03:44:02.029Z,5.00
2023-02-01T03:46:38.556Z,5.43
2023-02-01T03:49:08.660Z,4.40
2023-02-01T03:51:39.120Z,5.17
2023-02-01T03:54:09.881Z,4.60
2023-02-01T03:56:39.704Z,5.37
2023-02-01T03:59:07.935Z,6.00
2023-02-01T04:01:37.370Z,5.60
2023-02-01T04:04:06.115Z,5.07
2023-02-01T04:06:34.471Z,5.53
2023-02-01T04:09:05.000Z,6.07
2023-02-01T04:11:34.571Z,6.47
2023-02-01T04:14:05.381Z,5.67
2023-02-01T04:16:34.089Z,6.07
2023-02-01T04:19:02.555Z,5.50
2023-02-01T04:21:31.217Z,5.63
2023-02-01T04:23:59.541Z,5.17
2023-02-01T04:26:27.873Z,5.53
2023-02-01T04:28:57.500Z,6.00
2023-02-01T04:31:28.137Z,5.50
2023-02-01T04:33:58.501Z,5.53
2023-02-01T04:36:26.875Z,5.73
2023-02-01T04:38:55.087Z,5.60
2023-02-01T04:41:23.866Z,6.30
2023-02-01T04:43:53.080Z,5.60
2023-02-01T04:46:22.971Z,5.03
2023-02-01T04:48:51.290Z,5.77
2023-02-01T04:51:19.500Z,5.93
2023-02-01T04:53:47.693Z,5.57
2023-02-01T04:56:15.773Z,5.43
2023-02-01T04:58:43.903Z,6.67
2023-02-01T05:01:12.025Z,6.03
2023-02-01T05:03:41.530Z,5.20
2023-02-01T05:06:09.749Z,4.83
2023-02-01T05:08:38.917Z,5.93
2023-02-01T05:11:07.148Z,6.37
2023-02-01T05:13:49.445Z,6.23
2023-02-01T05:16:18.238Z,5.80
2023-02-01T05:18:47.709Z,5.40
2023-02-01T05:21:16.064Z,5.10
2023-02-01T05:24:01.998Z,5.80
2023-02-01T05:26:30.491Z,5.27
2023-02-01T05:28:58.705Z,5.10
2023-02-01T05:31:26.996Z,4.90
2023-02-01T05:33:56.978Z,5.90
2023-02-01T05:36:25.075Z,5.13
2023-02-01T05:38:53.348Z,5.17
2023-02-01T05:41:21.572Z,4.43
2023-02-01T05:43:49.696Z,4.77
2023-02-01T05:46:17.949Z,4.33
2023-02-01T05:48:46.234Z,4.03
2023-02-01T05:51:16.014Z,4.50
2023-02-01T05:53:45.255Z,4.47
2023-02-01T05:56:17.533Z,4.63
2023-02-01T05:58:45.824Z,4.23
2023-02-01T06:01:13.997Z,4.27
2023-02-01T06:03:42.300Z,5.00
2023-02-01T06:06:10.530Z,3.83
2023-02-01T06:08:41.211Z,4.33
2023-02-01T06:11:10.960Z,4.07
2023-02-01T06:13:41.520Z,4.73
2023-02-01T06:16:09.737Z,4.03
2023-02-01T06:18:38.843Z,3.97
2023-02-01T06:21:07.256Z,3.93
2023-02-01T06:23:35.584Z,4.33
2023-02-01T06:26:06.894Z,4.00
2023-02-01T06:28:37.609Z,5.07
2023-02-01T06:31:07.599Z,4.50
2023-02-01T06:33:36.580Z,4.77
2023-02-01T06:36:07.418Z,4.87
2023-02-01T06:38:36.596Z,3.90
2023-02-01T06:41:06.983Z,4.20
2023-02-01T06:43:35.347Z,4.27
2023-02-01T06:46:04.992Z,3.73
2023-02-01T06:48:33.498Z,4.47
2023-02-01T06:51:01.607Z,4.53
2023-02-01T06:53:29.840Z,4.80
2023-02-01T06:55:59.328Z,4.50
2023-02-01T06:58:32.436Z,4.87
2023-02-01T07:01:03.386Z,5.00
2023-02-01T07:03:31.439Z,4.83
2023-02-01T07:06:00.607Z,4.37
2023-02-01T07:08:29.950Z,4.63
2023-02-01T07:10:58.790Z,5.13
2023-02-01T07:13:26.914Z,4.37
2023-02-01T07:15:56.539Z,4.50
2023-02-01T07:18:24.904Z,4.03
2023-02-01T07:20:53.469Z,4.27
2023-02-01T07:23:21.772Z,4.40
2023-02-01T07:25:49.974Z,4.57
2023-02-01T07:28:18.566Z,5.07
2023-02-01T07:30:51.838Z,4.50
2023-02-01T07:33:23.591Z,4.67
2023-02-01T07:35:52.862Z,4.73
2023-02-01T07:38:24.774Z,4.47
2023-02-01T07:40:53.070Z,4.50
2023-02-01T07:43:21.348Z,4.70
2023-02-01T07:45:54.280Z,4.83
2023-02-01T07:48:24.953Z,4.37
2023-02-01T07:50:59.837Z,4.03
2023-02-01T07:53:28.111Z,4.87
2023-02-01T07:55:57.040Z,4.97
2023-02-01T07:58:25.507Z,4.33
2023-02-01T08:01:11.736Z,4.80
2023-02-01T08:03:41.758Z,5.70
2023-02-01T08:06:10.120Z,4.90
2023-02-01T08:08:38.729Z,5.40
2023-02-01T08:11:08.516Z,4.93
2023-02-01T08:13:37.092Z,4.17
2023-02-01T08:16:07.238Z,4.77
2023-02-01T08:18:36.035Z,5.77
2023-02-01T08:21:10.072Z,4.83
2023-02-01T08:23:39.152Z,4.70
2023-02-01T08:26:09.265Z,4.70
2023-02-01T08:28:38.076Z,4.50
2023-02-01T08:31:08.267Z,4.80
2023-02-01T08:33:38.040Z,4.50
2023-02-01T08:36:09.282Z,5.53
2023-02-01T08:38:38.064Z,4.60
2023-02-01T08:41:08.080Z,5.00
2023-02-01T08:43:36.660Z,4.60
2023-02-01T08:46:05.270Z,4.90
2023-02-01T08:48:33.858Z,4.27
2023-02-01T08:51:04.275Z,4.17
2023-02-01T08:53:33.846Z,4.33
2023-02-01T08:56:02.757Z,4.53
2023-02-01T08:58:31.066Z,4.07
2023-02-01T09:00:59.447Z,4.53
2023-02-01T09:03:27.873Z,4.93
2023-02-01T09:06:02.323Z,5.50
2023-02-01T09:08:30.681Z,5.23
2023-02-01T09:11:03.537Z,4.87
2023-02-01T09:13:32.101Z,4.03
2023-02-01T09:16:01.183Z,4.27
2023-02-01T09:18:29.573Z,3.83
2023-02-01T09:20:57.875Z,4.23
2023-02-01T09:23:26.521Z,4.07
2023-02-01T09:25:54.718Z,4.17
2023-02-01T09:28:24.271Z,4.03
2023-02-01T09:30:57.992Z,4.07
2023-02-01T09:33:26.536Z,4.43
2023-02-01T09:35:58.417Z,5.27
2023-02-01T09:38:29.489Z,5.47
2023-02-01T09:40:58.343Z,5.67
2023-02-01T09:43:47.263Z,4.80
2023-02-01T09:46:22.655Z,5.10
2023-02-01T09:48:51.991Z,5.43
2023-02-01T09:51:24.516Z,4.20
2023-02-01T09:54:00.322Z,5.17
2023-02-01T09:56:31.804Z,4.53
2023-02-01T09:59:06.909Z,4.03
2023-02-01T10:01:35.517Z,4.27
2023-02-01T10:04:05.879Z,4.03
2023-02-01T10:06:43.674Z,3.97
2023-02-01T10:09:22.915Z,5.07
2023-02-01T10:12:01.766Z,4.47
2023-02-01T10:14:46.754Z,4.33
2023-02-01T10:17:22.701Z,4.53
2023-02-01T10:19:59.764Z,4.03
2023-02-01T10:23:00.044Z,4.00
2023-02-01T10:25:26.054Z,4.63
2023-02-01T10:27:54.495Z,4.63
2023-02-01T10:30:26.599Z,3.97
2023-02-01T10:32:58.554Z,4.30
2023-02-01T10:35:30.940Z,3.70
2023-02-01T10:38:03.649Z,3.67
2023-02-01T10:40:31.966Z,4.00
2023-02-01T10:43:03.010Z,3.83
2023-02-01T10:45:35.056Z,3.40
2023-02-01T10:48:05.132Z,3.37
2023-02-01T10:50:37.374Z,3.90
2023-02-01T10:53:14.471Z,3.83
2023-02-01T10:55:44.061Z,3.83
2023-02-01T10:58:18.085Z,3.83
2023-02-01T11:00:50.453Z,3.83
2023-02-01T11:03:34.766Z,3.60
2023-02-01T11:06:04.114Z,4.10
2023-02-01T11:08:32.481Z,3.60
2023-02-01T11:11:02.413Z,4.03
2023-02-01T11:13:34.213Z,3.50
2023-02-01T11:16:06.219Z,3.93
2023-02-01T11:18:38.277Z,4.50
2023-02-01T11:21:07.730Z,3.70
2023-02-01T11:23:37.341Z,3.83
2023-02-01T11:26:13.406Z,3.43
2023-02-01T11:28:48.027Z,3.40
2023-02-01T11:31:17.612Z,3.73
2023-02-01T11:33:50.417Z,3.70
2023-02-01T11:36:20.304Z,3.80
2023-02-01T11:38:54.275Z,3.70
2023-02-01T11:41:24.758Z,3.70
2023-02-01T11:43:55.366Z,3.63
2023-02-01T11:46:28.602Z,3.87
2023-02-01T11:48:58.227Z,3.83
2023-02-01T11:51:45.389Z,3.57
2023-02-01T11:54:26.735Z,3.67
2023-02-01T11:57:05.005Z,3.40
2023-02-01T11:59:56.393Z,3.67
2023-02-01T12:02:49.276Z,3.10
2023-02-01T12:05:30.358Z,3.60
2023-02-01T12:08:18.398Z,3.33
2023-02-01T12:10:57.557Z,3.63
2023-02-01T12:13:39.805Z,4.07
2023-02-01T12:16:17.144Z,3.70
2023-02-01T12:19:07.203Z,2.97
2023-02-01T12:21:55.952Z,3.73
2023-02-01T12:24:41.643Z,3.60
2023-02-01T12:27:21.709Z,3.60
2023-02-01T12:30:10.126Z,3.57
2023-02-01T12:32:51.326Z,3.53
2023-02-01T12:35:39.870Z,3.27
2023-02-01T12:38:19.948Z,3.37
2023-02-01T12:40:59.091Z,3.23
2023-02-01T12:43:38.677Z,2.93
2023-02-01T12:46:11.445Z,2.80
2023-02-01T12:48:44.032Z,3.23
2023-02-01T12:51:18.052Z,3.90
2023-02-01T12:53:49.063Z,3.73
2023-02-01T12:56:20.974Z,3.20
2023-02-01T12:58:51.270Z,3.03
2023-02-01T13:01:24.079Z,3.20
2023-02-01T13:03:58.128Z,4.03
2023-02-01T13:06:30.856Z,3.63
2023-02-01T13:09:04.176Z,3.57
2023-02-01T13:11:34.130Z,4.43
2023-02-01T13:14:05.651Z,3.70
2023-02-01T13:16:36.786Z,3.60
2023-02-01T13:19:11.524Z,3.37
2023-02-01T13:21:43.946Z,3.30
2023-02-01T13:24:32.405Z,3.33
2023-02-01T13:27:00.632Z,2.67
2023-02-01T13:29:30.355Z,2.57
2023-02-01T13:32:11.744Z,3.10
2023-02-01T13:34:59.976Z,2.83
2023-02-01T13:37:50.119Z,3.13
2023-02-01T13:40:24.645Z,2.97
2023-02-01T13:42:54.176Z,3.73
2023-02-01T13:45:24.770Z,2.93
2023-02-01T13:47:55.429Z,3.50
2023-02-01T13:50:25.824Z,3.33
2023-02-01T13:52:58.172Z,3.03
2023-02-01T13:55:32.919Z,3.23
2023-02-01T13:58:07.841Z,3.13
2023-02-01T14:00:37.520Z,3.17
2023-02-01T14:03:16.882Z,3.50
2023-02-01T14:06:18.023Z,3.20
2023-02-01T14:09:03.917Z,3.43
2023-02-01T14:11:41.151Z,2.83
2023-02-01T14:14:48.128Z,2.87
2023-02-01T14:17:38.357Z,3.67
2023-02-01T14:20:54.169Z,3.17
2023-02-01T14:23:25.395Z,3.50
2023-02-01T14:26:13.646Z,3.33
2023-02-01T14:28:46.060Z,3.27
2023-02-01T14:31:25.435Z,3.50
2023-02-01T14:33:58.328Z,2.70
2023-02-01T14:36:26.766Z,2.63
2023-02-01T14:38:55.371Z,2.80
2023-02-01T14:41:32.786Z,3.20
2023-02-01T14:44:28.561Z,3.20
2023-02-01T14:47:28.875Z,3.03
2023-02-01T14:50:06.217Z,2.90
2023-02-01T14:52:36.873Z,3.73
2023-02-01T14:55:08.740Z,3.67
2023-02-01T14:57:39.938Z,4.20
2023-02-01T15:00:17.345Z,2.60
2023-02-01T15:02:46.106Z,3.03
2023-02-01T15:05:26.601Z,3.17
2023-02-01T15:07:55.332Z,3.00
2023-02-01T15:10:24.372Z,2.87
2023-02-01T15:12:54.154Z,2.90
2023-02-01T15:15:25.264Z,3.27
2023-02-01T15:17:55.665Z,2.70
2023-02-01T15:20:26.805Z,3.13
2023-02-01T15:22:57.370Z,3.60
2023-02-01T15:25:28.252Z,2.70
2023-02-01T15:27:58.753Z,2.57
2023-02-01T15:30:29.127Z,3.60
2023-02-01T15:33:08.617Z,2.40
2023-02-01T15:35:38.939Z,2.97
2023-02-01T15:38:39.006Z,3.23
2023-02-01T15:41:15.900Z,2.70
2023-02-01T15:44:06.890Z,2.90
2023-02-01T15:46:37.846Z,3.80
2023-02-01T15:49:07.026Z,2.40
2023-02-01T15:51:35.359Z,2.40
2023-02-01T15:54:07.408Z,2.70
2023-02-01T15:56:38.163Z,2.60
2023-02-01T15:59:21.269Z,3.10
2023-02-01T16:01:51.925Z,2.43
2023-02-01T16:04:22.412Z,3.10
2023-02-01T16:06:52.871Z,3.00
2023-02-01T16:09:22.776Z,2.80
2023-02-01T16:11:56.777Z,3.40
2023-02-01T16:14:27.335Z,3.20
2023-02-01T16:16:58.776Z,3.63
2023-02-01T16:19:30.069Z,3.43
2023-02-01T16:21:59.485Z,3.20
2023-02-01T16:24:27.729Z,3.37
2023-02-01T16:26:55.970Z,3.07
2023-02-01T16:29:24.960Z,3.30
2023-02-01T16:31:54.950Z,3.50
2023-02-01T16:34:23.014Z,3.17
2023-02-01T16:36:53.258Z,3.20
2023-02-01T16:39:22.250Z,3.90
2023-02-01T16:41:50.967Z,3.50
2023-02-01T16:44:19.515Z,3.87
2023-02-01T16:46:49.510Z,3.73
2023-02-01T16:49:22.728Z,3.37
2023-02-01T16:51:53.799Z,3.63
2023-02-01T16:54:22.452Z,3.30
2023-02-01T16:56:50.729Z,4.13
2023-02-01T16:59:18.928Z,3.87
2023-02-01T17:01:47.172Z,3.27
2023-02-01T17:04:17.542Z,3.20
2023-02-01T17:06:49.970Z,3.90
2023-02-01T17:09:36.686Z,4.03
2023-02-01T17:12:23.881Z,3.30
2023-02-01T17:14:53.261Z,3.77
2023-02-01T17:17:29.072Z,3.50
2023-02-01T17:20:07.060Z,4.13
2023-02-01T17:22:36.628Z,4.00
2023-02-01T17:25:07.080Z,4.80
2023-02-01T17:27:35.471Z,4.50
2023-02-01T17:30:04.569Z,3.70
2023-02-01T17:32:35.473Z,4.47
2023-02-01T17:35:07.921Z,4.70
2023-02-01T17:37:38.616Z,4.53
2023-02-01T17:40:07.821Z,4.23
2023-02-01T17:42:39.017Z,4.00
2023-02-01T17:45:22.022Z,4.20
2023-02-01T17:47:50.455Z,4.33
2023-02-01T17:50:18.600Z,4.20
2023-02-01T17:52:48.002Z,4.37
2023-02-01T17:55:19.618Z,4.20
2023-02-01T17:57:48.147Z,4.40
2023-02-01T18:00:18.076Z,4.70
2023-02-01T18:02:46.517Z,4.60
2023-02-01T18:05:18.042Z,5.17
2023-02-01T18:07:46.212Z,4.70
2023-02-01T18:10:16.211Z,4.77
2023-02-01T18:12:45.271Z,4.43
2023-02-01T18:15:22.243Z,5.00
2023-02-01T18:17:50.783Z,5.07
2023-02-01T18:20:22.189Z,4.23
2023-02-01T18:22:50.408Z,4.50
2023-02-01T18:25:22.185Z,3.93
2023-02-01T18:27:52.447Z,4.97
2023-02-01T18:30:21.419Z,4.77
2023-02-01T18:32:58.892Z,4.73
2023-02-01T18:35:28.961Z,4.80
2023-02-01T18:37:58.227Z,5.90
2023-02-01T18:40:30.137Z,6.13
2023-02-01T18:42:58.401Z,5.30
2023-02-01T18:45:37.602Z,5.27
2023-02-01T18:48:06.809Z,5.30
2023-02-01T18:50:36.752Z,4.77
2023-02-01T18:53:06.781Z,4.97
2023-02-01T18:55:36.578Z,5.37
2023-02-01T18:58:06.583Z,4.97
2023-02-01T19:00:35.828Z,5.23
2023-02-01T19:03:04.382Z,5.03
2023-02-01T19:05:33.154Z,4.77
2023-02-01T19:08:01.845Z,5.90
2023-02-01T19:10:30.129Z,5.13
2023-02-01T19:12:59.711Z,5.33
2023-02-01T19:15:28.031Z,4.70
2023-02-01T19:17:57.170Z,5.00
2023-02-01T19:20:27.535Z,4.70
2023-02-01T19:22:55.741Z,5.03
2023-02-01T19:25:26.510Z,4.83
2023-02-01T19:27:55.410Z,4.77
2023-02-01T19:30:25.790Z,4.10
2023-02-01T19:32:54.151Z,4.63
2023-02-01T19:35:23.396Z,4.20
2023-02-01T19:37:51.746Z,4.27
2023-02-01T19:40:21.540Z,4.47
2023-02-01T19:42:50.322Z,4.77
2023-02-01T19:45:19.303Z,4.03
2023-02-01T19:47:49.095Z,4.80
2023-02-01T19:50:19.765Z,3.73
2023-02-01T19:52:47.975Z,4.73
2023-02-01T19:55:16.264Z,4.53
2023-02-01T19:57:45.240Z,4.37
2023-02-01T20:00:17.012Z,3.40
2023-02-01T20:02:46.392Z,4.73
2023-02-01T20:05:17.117Z,4.60
2023-02-01T20:07:45.456Z,4.70
2023-02-01T20:10:13.725Z,4.17
2023-02-01T20:12:42.207Z,4.37
2023-02-01T20:15:11.253Z,4.63
2023-02-01T20:17:39.480Z,4.37
2023-02-01T20:20:08.592Z,4.23
2023-02-01T20:22:38.143Z,4.70
2023-02-01T20:25:11.675Z,4.53
2023-02-01T20:27:41.088Z,4.33
2023-02-01T20:30:10.920Z,4.83
2023-02-01T20:32:39.230Z,5.17
2023-02-01T20:35:08.620Z,4.90
2023-02-01T20:37:38.286Z,3.93
2023-02-01T20:40:07.543Z,4.80
2023-02-01T20:42:35.905Z,5.17
2023-02-01T20:45:04.331Z,4.53
2023-02-01T20:47:32.682Z,4.80
2023-02-01T20:50:00.745Z,4.60
2023-02-01T20:52:28.881Z,4.00
2023-02-01T20:54:58.547Z,4.10
2023-02-01T20:57:26.653Z,3.83
2023-02-01T20:59:55.125Z,3.97
2023-02-01T21:02:23.209Z,3.80
2023-02-01T21:04:51.389Z,4.30
2023-02-01T21:07:19.560Z,4.33
2023-02-01T21:09:47.677Z,3.70
2023-02-01T21:12:17.367Z,4.60
2023-02-01T21:14:45.550Z,4.37
2023-02-01T21:17:13.921Z,4.37
2023-02-01T21:19:44.653Z,4.23
2023-02-01T21:22:14.283Z,3.97
2023-02-01T21:24:42.984Z,4.50
2023-02-01T21:27:11.749Z,4.80
2023-02-01T21:29:41.441Z,4.33
2023-02-01T21:32:10.921Z,4.73
2023-02-01T21:34:39.393Z,5.10
2023-02-01T21:37:08.535Z,4.27
2023-02-01T21:39:36.868Z,4.53
2023-02-01T21:42:18.714Z,4.27
2023-02-01T21:44:49.125Z,5.13
2023-02-01T21:47:18.580Z,3.93
2023-02-01T21:49:47.815Z,5.47
2023-02-01T21:52:17.188Z,4.93
2023-02-01T21:54:45.471Z,4.10
2023-02-01T21:57:16.701Z,4.20
2023-02-01T21:59:45.225Z,4.43
2023-02-01T22:02:16.974Z,4.57
2023-02-01T22:04:45.397Z,4.77
2023-02-01T22:07:13.800Z,5.37
2023-02-01T22:09:42.166Z,4.57
2023-02-01T22:12:11.650Z,4.37
2023-02-01T22:14:40.465Z,5.30
2023-02-01T22:17:08.569Z,4.93
2023-02-01T22:19:38.136Z,4.90
2023-02-01T22:22:06.371Z,5.07
2023-02-01T22:24:36.170Z,5.00
2023-02-01T22:27:14.186Z,4.93
2023-02-01T22:29:43.950Z,4.90
2023-02-01T22:32:14.178Z,4.90
2023-02-01T22:34:43.850Z,4.67
2023-02-01T22:37:12.350Z,5.80
2023-02-01T22:39:41.123Z,6.20
2023-02-01T22:42:09.346Z,5.63
2023-02-01T22:44:37.654Z,5.33
2023-02-01T22:47:06.064Z,5.20
2023-02-01T22:49:34.199Z,5.33
2023-02-01T22:52:03.989Z,5.50
2023-02-01T22:54:32.855Z,5.60
2023-02-01T22:57:01.250Z,5.33
2023-02-01T22:59:31.987Z,5.27
2023-02-01T23:02:00.439Z,5.73
2023-02-01T23:04:28.694Z,6.00
2023-02-01T23:06:56.892Z,5.80
2023-02-01T23:09:27.331Z,5.67
2023-02-01T23:11:55.896Z,5.27
2023-02-01T23:14:24.434Z,5.80
2023-02-01T23:16:52.823Z,5.53
2023-02-01T23:19:21.356Z,5.07
2023-02-01T23:21:50.159Z,5.07
2023-02-01T23:24:18.458Z,6.00
2023-02-01T23:26:48.097Z,5.00
2023-02-01T23:29:19.169Z,5.50
2023-02-01T23:31:47.479Z,5.23
2023-02-01T23:34:15.584Z,5.37
2023-02-01T23:36:43.898Z,5.50
2023-02-01T23:39:12.152Z,5.20
2023-02-01T23:41:40.347Z,5.13
2023-02-01T23:44:10.096Z,5.30
2023-02-01T23:46:39.751Z,5.07
2023-02-01T23:49:09.578Z,4.53
2023-02-01T23:51:38.197Z,5.60
2023-02-01T23:54:06.720Z,5.60
2023-02-01T23:56:36.282Z,5.67
2023-02-01T23:59:07.237Z,5.17
